createdAt,value
2017-09-16T00:00:21.751Z,10.0
2017-09-16T00:01:23.316Z,10.0
2017-09-16T00:02:24.880Z,10.1
2017-09-16T00:03:26.452Z,10.0
2017-09-16T00:04:28.024Z,10.0
2017-09-16T00:05:29.634Z,10.0
2017-09-16T00:06:31.170Z,9.9
2017-09-16T00:07:32.753Z,9.9
2017-09-16T00:08:34.319Z,9.9
2017-09-16T00:09:35.884Z,9.8
2017-09-16T00:10:37.498Z,9.8
2017-09-16T00:11:39.066Z,9.9
2017-09-16T00:12:40.658Z,9.7
2017-09-16T00:13:42.232Z,9.7
2017-09-16T00:14:43.879Z,9.7
2017-09-16T00:15:48.890Z,9.7
2017-09-16T00:16:50.459Z,9.8
2017-09-16T00:17:51.944Z,9.8
2017-09-16T00:18:53.558Z,9.8
2017-09-16T00:19:55.135Z,9.8
2017-09-16T00:20:56.655Z,9.8
2017-09-16T00:21:58.185Z,9.7
2017-09-16T00:22:59.774Z,9.7
2017-09-16T00:24:01.351Z,9.7
2017-09-16T00:25:02.971Z,9.7
2017-09-16T00:26:04.499Z,9.6
2017-09-16T00:27:06.111Z,9.7
2017-09-16T00:28:07.692Z,9.7
2017-09-16T00:29:09.257Z,9.7
2017-09-16T00:30:10.846Z,9.6
2017-09-16T00:31:12.409Z,9.7
2017-09-16T00:32:14.069Z,9.7
2017-09-16T00:33:15.591Z,9.7
2017-09-16T00:34:17.237Z,9.7
2017-09-16T00:35:18.782Z,9.8
2017-09-16T00:36:20.338Z,9.7
2017-09-16T00:37:21.880Z,9.8
2017-09-16T00:38:23.380Z,9.8
2017-09-16T00:39:25.058Z,9.8
2017-09-16T00:40:26.676Z,9.8
2017-09-16T00:41:28.230Z,9.8
2017-09-16T00:42:29.772Z,9.8
2017-09-16T00:43:31.345Z,9.7
2017-09-16T00:44:32.891Z,9.6
2017-09-16T00:45:34.471Z,9.7
2017-09-16T00:46:36.008Z,9.6
2017-09-16T00:47:37.588Z,9.7
2017-09-16T00:48:39.239Z,9.6
2017-09-16T00:49:40.858Z,9.6
2017-09-16T00:50:42.507Z,9.6
2017-09-16T00:51:44.192Z,9.6
2017-09-16T00:52:45.770Z,9.6
2017-09-16T00:53:47.387Z,9.6
2017-09-16T00:54:48.938Z,9.6
2017-09-16T00:55:50.549Z,9.6
2017-09-16T00:56:52.110Z,9.4
2017-09-16T00:57:53.774Z,9.5
2017-09-16T00:58:55.379Z,9.5
2017-09-16T00:59:56.987Z,9.5
2017-09-16T01:00:58.503Z,9.5
2017-09-16T01:02:00.121Z,9.4
2017-09-16T01:03:01.700Z,9.3
2017-09-16T01:04:03.327Z,9.2
2017-09-16T01:05:04.879Z,9.2
2017-09-16T01:06:06.411Z,9.3
2017-09-16T01:07:08.100Z,9.2
2017-09-16T01:08:09.742Z,9.3
2017-09-16T01:09:11.291Z,9.3
2017-09-16T01:10:12.870Z,9.2
2017-09-16T01:11:14.406Z,9.3
2017-09-16T01:12:15.875Z,9.2
2017-09-16T01:13:17.462Z,9.2
2017-09-16T01:14:18.935Z,9.2
2017-09-16T01:15:20.429Z,9.2
2017-09-16T01:16:22.011Z,9.1
2017-09-16T01:17:23.613Z,9.2
2017-09-16T01:18:25.091Z,9.2
2017-09-16T01:19:26.627Z,9.1
2017-09-16T01:20:28.167Z,9.1
2017-09-16T01:21:29.728Z,9.2
2017-09-16T01:22:31.267Z,9.2
2017-09-16T01:23:32.794Z,9.2
2017-09-16T01:24:34.339Z,9.2
2017-09-16T01:25:35.941Z,9.2
2017-09-16T01:26:37.437Z,9.2
2017-09-16T01:27:38.965Z,9.0
2017-09-16T01:28:40.540Z,9.0
2017-09-16T01:29:42.164Z,8.9
2017-09-16T01:30:43.701Z,8.9
2017-09-16T01:31:45.298Z,8.8
2017-09-16T01:32:46.893Z,8.9
2017-09-16T01:33:48.449Z,8.9
2017-09-16T01:34:50.022Z,8.9
2017-09-16T01:35:51.575Z,9.0
2017-09-16T01:36:53.132Z,9.0
2017-09-16T01:37:54.755Z,9.0
2017-09-16T01:38:56.269Z,8.9
2017-09-16T01:39:57.804Z,9.0
2017-09-16T01:40:59.353Z,8.9
2017-09-16T01:42:00.962Z,9.0
2017-09-16T01:43:02.450Z,8.9
2017-09-16T01:44:03.935Z,9.0
2017-09-16T01:45:05.459Z,8.9
2017-09-16T01:46:06.959Z,8.9
2017-09-16T01:47:08.549Z,8.9
2017-09-16T01:48:10.136Z,8.9
2017-09-16T01:49:11.777Z,8.9
2017-09-16T01:50:13.342Z,8.9
2017-09-16T01:51:14.853Z,9.0
2017-09-16T01:52:16.421Z,9.0
2017-09-16T01:53:17.974Z,8.9
2017-09-16T01:54:19.505Z,8.9
2017-09-16T01:55:21.052Z,8.9
2017-09-16T01:56:22.604Z,8.8
2017-09-16T01:57:24.232Z,8.9
2017-09-16T01:58:25.794Z,8.8
2017-09-16T01:59:27.343Z,8.9
2017-09-16T02:00:28.936Z,8.7
2017-09-16T02:01:30.542Z,8.7
2017-09-16T02:02:32.077Z,8.7
2017-09-16T02:03:33.615Z,8.7
2017-09-16T02:04:35.161Z,8.6
2017-09-16T02:05:36.702Z,8.7
2017-09-16T02:06:38.169Z,8.6
2017-09-16T02:07:39.807Z,8.6
2017-09-16T02:08:41.388Z,8.7
2017-09-16T02:09:42.893Z,8.7
2017-09-16T02:10:44.486Z,8.6
2017-09-16T02:11:46.078Z,8.6
2017-09-16T02:12:47.650Z,8.6
2017-09-16T02:13:49.202Z,8.6
2017-09-16T02:14:51.044Z,8.6
2017-09-16T02:15:52.567Z,8.6
2017-09-16T02:16:54.128Z,8.6
2017-09-16T02:17:55.671Z,8.5
2017-09-16T02:18:57.177Z,8.6
2017-09-16T02:19:58.707Z,8.5
2017-09-16T02:21:00.278Z,8.5
2017-09-16T02:22:01.808Z,8.5
2017-09-16T02:23:03.417Z,8.5
2017-09-16T02:24:04.965Z,8.4
2017-09-16T02:25:06.540Z,8.3
2017-09-16T02:26:08.173Z,8.5
2017-09-16T02:27:09.674Z,8.4
2017-09-16T02:28:11.242Z,8.4
2017-09-16T02:29:12.797Z,8.4
2017-09-16T02:30:14.304Z,8.3
2017-09-16T02:31:15.849Z,8.3
2017-09-16T02:32:17.444Z,8.2
2017-09-16T02:33:18.980Z,8.2
2017-09-16T02:34:20.463Z,8.2
2017-09-16T02:35:21.998Z,8.3
2017-09-16T02:36:23.544Z,8.3
2017-09-16T02:37:25.176Z,8.3
2017-09-16T02:38:26.722Z,8.3
2017-09-16T02:39:28.227Z,8.3
2017-09-16T02:40:29.777Z,8.3
2017-09-16T02:41:31.294Z,8.3
2017-09-16T02:42:32.868Z,8.2
2017-09-16T02:43:34.492Z,8.3
2017-09-16T02:44:36.033Z,8.3
2017-09-16T02:45:37.552Z,8.3
2017-09-16T02:46:39.096Z,8.3
2017-09-16T02:47:40.687Z,8.3
2017-09-16T02:48:42.220Z,8.4
2017-09-16T02:49:43.823Z,8.3
2017-09-16T02:50:45.404Z,8.3
2017-09-16T02:51:46.956Z,8.1
2017-09-16T02:52:48.561Z,8.1
2017-09-16T02:53:50.102Z,8.3
2017-09-16T02:54:51.713Z,8.2
2017-09-16T02:55:53.251Z,8.3
2017-09-16T02:56:54.776Z,8.3
2017-09-16T02:57:56.317Z,8.3
2017-09-16T02:58:57.940Z,8.3
2017-09-16T02:59:59.456Z,8.3
2017-09-16T03:01:00.995Z,8.2
2017-09-16T03:02:02.556Z,8.1
2017-09-16T03:03:04.113Z,8.2
2017-09-16T03:04:05.707Z,8.2
2017-09-16T03:05:07.220Z,8.3
2017-09-16T03:06:08.754Z,8.2
2017-09-16T03:07:10.402Z,8.1
2017-09-16T03:08:11.983Z,8.0
2017-09-16T03:09:13.491Z,8.0
2017-09-16T03:10:14.935Z,8.0
2017-09-16T03:11:16.508Z,8.0
2017-09-16T03:12:18.188Z,7.8
2017-09-16T03:13:19.814Z,7.8
2017-09-16T03:14:21.330Z,7.8
2017-09-16T03:15:22.896Z,7.8
2017-09-16T03:16:24.433Z,7.8
2017-09-16T03:17:25.934Z,7.7
2017-09-16T03:18:27.427Z,7.7
2017-09-16T03:19:28.932Z,7.7
2017-09-16T03:20:30.532Z,7.7
2017-09-16T03:21:32.064Z,7.7
2017-09-16T03:22:33.580Z,7.8
2017-09-16T03:23:35.148Z,7.8
2017-09-16T03:24:36.669Z,7.6
2017-09-16T03:25:38.192Z,7.7
2017-09-16T03:26:39.759Z,7.6
2017-09-16T03:27:41.280Z,7.6
2017-09-16T03:28:42.840Z,7.7
2017-09-16T03:29:44.472Z,7.6
2017-09-16T03:30:45.985Z,7.7
2017-09-16T03:31:47.570Z,7.9
2017-09-16T03:32:49.115Z,7.9
2017-09-16T03:33:50.768Z,7.9
2017-09-16T03:34:52.168Z,7.9
2017-09-16T03:35:53.652Z,7.9
2017-09-16T03:36:55.330Z,7.9
2017-09-16T03:37:56.885Z,8.0
2017-09-16T03:38:58.456Z,7.9
2017-09-16T03:39:59.965Z,8.1
2017-09-16T03:41:01.496Z,8.0
2017-09-16T03:42:02.963Z,8.0
2017-09-16T03:43:04.537Z,8.0
2017-09-16T03:44:06.092Z,7.9
2017-09-16T03:45:07.651Z,7.8
2017-09-16T03:46:09.231Z,7.7
2017-09-16T03:47:10.724Z,7.7
2017-09-16T03:48:12.309Z,7.8
2017-09-16T03:49:13.914Z,7.7
2017-09-16T03:50:15.436Z,7.8
2017-09-16T03:51:17.040Z,7.8
2017-09-16T03:52:18.540Z,7.7
2017-09-16T03:53:20.094Z,7.6
2017-09-16T03:54:21.660Z,7.6
2017-09-16T03:55:23.176Z,7.6
2017-09-16T03:56:24.727Z,7.6
2017-09-16T03:57:26.284Z,7.6
2017-09-16T03:58:27.876Z,7.6
2017-09-16T03:59:29.428Z,7.6
2017-09-16T04:00:30.933Z,7.8
2017-09-16T04:01:32.501Z,7.7
2017-09-16T04:02:34.032Z,7.8
2017-09-16T04:03:35.561Z,7.9
2017-09-16T04:04:37.159Z,7.7
2017-09-16T04:05:38.742Z,7.6
2017-09-16T04:06:40.271Z,7.6
2017-09-16T04:07:41.794Z,7.6
2017-09-16T04:08:43.417Z,7.5
2017-09-16T04:09:44.969Z,7.6
2017-09-16T04:10:46.578Z,7.5
2017-09-16T04:11:48.169Z,7.4
2017-09-16T04:12:49.698Z,7.4
2017-09-16T04:13:51.234Z,7.4
2017-09-16T04:14:52.787Z,7.5
2017-09-16T04:15:54.396Z,7.6
2017-09-16T04:16:55.982Z,7.5
2017-09-16T04:17:57.508Z,7.6
2017-09-16T04:18:59.045Z,7.6
2017-09-16T04:20:00.611Z,7.5
2017-09-16T04:21:02.098Z,7.6
2017-09-16T04:22:03.616Z,7.6
2017-09-16T04:23:05.183Z,7.5
2017-09-16T04:24:06.764Z,7.5
2017-09-16T04:25:08.335Z,7.5
2017-09-16T04:26:09.876Z,7.5
2017-09-16T04:27:11.447Z,7.4
2017-09-16T04:28:13.133Z,7.4
2017-09-16T04:29:14.626Z,7.4
2017-09-16T04:30:16.173Z,7.5
2017-09-16T04:31:17.690Z,7.5
2017-09-16T04:32:19.280Z,7.6
2017-09-16T04:33:20.867Z,7.5
2017-09-16T04:34:22.404Z,7.5
2017-09-16T04:35:23.915Z,7.5
2017-09-16T04:36:25.426Z,7.5
2017-09-16T04:37:26.978Z,7.5
2017-09-16T04:38:29.021Z,7.5
2017-09-16T04:39:30.499Z,7.7
2017-09-16T04:40:32.018Z,7.7
2017-09-16T04:41:34.317Z,7.7
2017-09-16T04:42:35.830Z,7.5
2017-09-16T04:43:37.817Z,7.6
2017-09-16T04:44:39.325Z,7.5
2017-09-16T04:45:40.854Z,7.5
2017-09-16T04:46:42.479Z,7.5
2017-09-16T04:47:44.030Z,7.5
2017-09-16T04:48:45.579Z,7.4
2017-09-16T04:49:47.125Z,7.3
2017-09-16T04:50:48.678Z,7.5
2017-09-16T04:51:50.258Z,7.4
2017-09-16T04:52:51.835Z,7.5
2017-09-16T04:53:53.377Z,7.5
2017-09-16T04:54:54.887Z,7.5
2017-09-16T04:55:56.644Z,7.5
2017-09-16T04:56:58.314Z,7.5
2017-09-16T04:57:59.876Z,7.5
2017-09-16T04:59:01.406Z,7.5
2017-09-16T05:00:03.021Z,7.6
2017-09-16T05:01:04.584Z,7.5
2017-09-16T05:02:06.103Z,7.4
2017-09-16T05:03:07.753Z,7.5
2017-09-16T05:04:09.318Z,7.5
2017-09-16T05:05:10.859Z,7.7
2017-09-16T05:06:12.482Z,7.6
2017-09-16T05:07:14.004Z,7.7
2017-09-16T05:08:15.556Z,7.8
2017-09-16T05:09:17.093Z,7.7
2017-09-16T05:10:18.609Z,7.8
2017-09-16T05:11:20.233Z,7.8
2017-09-16T05:12:21.907Z,7.9
2017-09-16T05:13:23.459Z,7.9
2017-09-16T05:14:24.967Z,7.8
2017-09-16T05:15:26.564Z,7.7
2017-09-16T05:16:28.189Z,7.7
2017-09-16T05:17:29.690Z,7.8
2017-09-16T05:18:31.775Z,7.8
2017-09-16T05:19:33.237Z,7.8
2017-09-16T05:20:34.802Z,7.8
2017-09-16T05:21:36.469Z,7.7
2017-09-16T05:22:38.008Z,7.8
2017-09-16T05:23:39.656Z,7.8
2017-09-16T05:24:41.281Z,7.8
2017-09-16T05:25:42.878Z,7.8
2017-09-16T05:26:44.413Z,7.7
2017-09-16T05:27:46.061Z,7.7
2017-09-16T05:28:47.838Z,7.7
2017-09-16T05:29:49.437Z,7.6
2017-09-16T05:30:51.023Z,7.6
2017-09-16T05:31:52.569Z,7.7
2017-09-16T05:32:54.183Z,7.7
2017-09-16T05:33:55.753Z,7.6
2017-09-16T05:34:57.321Z,7.5
2017-09-16T05:35:58.833Z,7.5
2017-09-16T05:37:00.370Z,7.5
2017-09-16T05:38:02.021Z,7.4
2017-09-16T05:39:04.084Z,7.5
2017-09-16T05:40:06.182Z,7.5
2017-09-16T05:41:07.925Z,7.3
2017-09-16T05:42:09.968Z,7.4
2017-09-16T05:43:12.151Z,7.5
2017-09-16T05:44:14.324Z,7.6
2017-09-16T05:45:16.606Z,7.6
2017-09-16T05:46:18.979Z,7.7
2017-09-16T05:47:21.082Z,7.6
2017-09-16T05:48:23.564Z,7.7
2017-09-16T05:49:26.239Z,7.8
2017-09-16T05:50:27.899Z,7.9
2017-09-16T05:51:29.789Z,8.0
2017-09-16T05:52:32.920Z,8.1
2017-09-16T05:53:35.727Z,8.1
2017-09-16T05:54:39.012Z,8.2
2017-09-16T05:55:42.120Z,8.2
2017-09-16T05:56:44.819Z,8.1
2017-09-16T05:57:47.577Z,8.1
2017-09-16T05:58:51.316Z,8.2
2017-09-16T05:59:54.028Z,8.1
2017-09-16T06:00:56.841Z,8.0
2017-09-16T06:01:59.844Z,7.9
2017-09-16T06:03:02.822Z,8.0
2017-09-16T06:04:05.887Z,8.1
2017-09-16T06:05:08.760Z,8.2
2017-09-16T06:06:12.483Z,8.2
2017-09-16T06:07:15.566Z,8.3
2017-09-16T06:08:18.649Z,8.3
2017-09-16T06:09:20.106Z,8.3
2017-09-16T06:10:22.994Z,8.5
2017-09-16T06:11:25.908Z,8.5
2017-09-16T06:12:28.840Z,8.6
2017-09-16T06:13:31.646Z,8.6
2017-09-16T06:14:34.862Z,8.7
2017-09-16T06:15:37.908Z,8.7
2017-09-16T06:16:40.893Z,8.8
2017-09-16T06:17:42.254Z,8.8
2017-09-16T06:18:44.913Z,8.7
2017-09-16T06:19:48.138Z,8.8
2017-09-16T06:20:51.160Z,8.8
2017-09-16T06:21:52.741Z,8.9
2017-09-16T06:22:54.378Z,8.8
2017-09-16T06:23:56.094Z,9.0
2017-09-16T06:24:57.744Z,9.0
2017-09-16T06:25:59.477Z,9.0
2017-09-16T06:27:00.965Z,9.0
2017-09-16T06:28:02.624Z,8.9
2017-09-16T06:29:04.208Z,9.0
2017-09-16T06:30:05.868Z,8.9
2017-09-16T06:31:07.500Z,8.8
2017-09-16T06:32:09.052Z,8.7
2017-09-16T06:33:10.588Z,8.6
2017-09-16T06:34:12.195Z,8.5
2017-09-16T06:35:13.769Z,8.4
2017-09-16T06:36:15.256Z,8.3
2017-09-16T06:37:16.916Z,8.5
2017-09-16T06:38:18.529Z,8.5
2017-09-16T06:39:20.102Z,8.6
2017-09-16T06:40:21.591Z,8.4
2017-09-16T06:41:23.103Z,8.3
2017-09-16T06:42:24.668Z,8.2
2017-09-16T06:43:26.277Z,8.3
2017-09-16T06:44:27.805Z,8.3
2017-09-16T06:45:29.417Z,8.4
2017-09-16T06:46:31.144Z,8.4
2017-09-16T06:47:32.858Z,8.6
2017-09-16T06:48:34.515Z,8.7
2017-09-16T06:49:36.052Z,8.8
2017-09-16T06:50:39.006Z,8.7
2017-09-16T06:51:40.744Z,8.6
2017-09-16T06:52:42.413Z,8.6
2017-09-16T06:53:43.992Z,8.6
2017-09-16T06:54:45.601Z,8.5
2017-09-16T06:55:47.158Z,8.5
2017-09-16T06:56:48.711Z,8.5
2017-09-16T06:57:50.269Z,8.4
2017-09-16T06:58:51.858Z,8.2
2017-09-16T06:59:53.468Z,8.3
2017-09-16T07:00:55.016Z,8.3
2017-09-16T07:01:56.693Z,8.4
2017-09-16T07:02:58.338Z,8.4
2017-09-16T07:03:59.924Z,8.6
2017-09-16T07:05:01.621Z,8.6
2017-09-16T07:06:03.314Z,8.7
2017-09-16T07:07:55.327Z,8.7
2017-09-16T07:08:56.577Z,8.8
2017-09-16T07:10:44.283Z,9.0
2017-09-16T07:12:30.658Z,9.3
2017-09-16T07:14:17.241Z,9.5
2017-09-16T07:16:09.873Z,9.6
2017-09-16T07:18:50.928Z,9.9
2017-09-16T07:20:32.399Z,10.1
2017-09-16T07:21:35.483Z,10.1
2017-09-16T07:23:17.149Z,10.0
2017-09-16T07:24:19.005Z,10.0
2017-09-16T07:25:20.290Z,10.2
2017-09-16T07:26:21.742Z,10.2
2017-09-16T07:27:24.023Z,10.3
2017-09-16T07:28:25.544Z,10.4
2017-09-16T07:29:27.190Z,10.6
2017-09-16T07:30:28.772Z,10.8
2017-09-16T07:31:30.639Z,11.0
2017-09-16T07:32:32.364Z,11.1
2017-09-16T07:33:34.012Z,11.5
2017-09-16T07:35:33.880Z,11.7
2017-09-16T07:37:19.889Z,12.1
2017-09-16T07:39:09.489Z,12.4
2017-09-16T07:40:19.202Z,12.8
2017-09-16T07:41:20.807Z,13.0
2017-09-16T07:42:22.354Z,13.0
2017-09-16T07:43:24.064Z,12.9
2017-09-16T07:44:25.938Z,12.7
2017-09-16T07:45:29.870Z,12.8
2017-09-16T07:46:31.389Z,12.7
2017-09-16T07:47:38.640Z,12.7
2017-09-16T07:48:48.646Z,12.8
2017-09-16T07:49:50.414Z,12.9
2017-09-16T07:50:52.495Z,13.1
2017-09-16T07:51:53.971Z,13.2
2017-09-16T07:52:59.033Z,13.2
2017-09-16T07:54:00.764Z,13.2
2017-09-16T07:55:02.589Z,13.3
2017-09-16T07:56:04.526Z,13.5
2017-09-16T07:57:06.086Z,13.7
2017-09-16T07:58:07.565Z,14.0
2017-09-16T07:59:09.112Z,14.3
2017-09-16T08:00:11.037Z,14.5
2017-09-16T08:01:12.676Z,14.6
2017-09-16T08:02:14.386Z,14.7
2017-09-16T08:03:15.981Z,14.6
2017-09-16T08:04:17.637Z,14.7
2017-09-16T08:05:19.239Z,14.5
2017-09-16T08:06:20.860Z,14.4
2017-09-16T08:07:22.527Z,14.3
2017-09-16T08:08:24.110Z,14.3
2017-09-16T08:09:25.655Z,13.9
2017-09-16T08:10:27.333Z,13.5
2017-09-16T08:11:29.146Z,13.8
2017-09-16T08:12:30.812Z,13.9
2017-09-16T08:13:32.549Z,14.1
2017-09-16T08:14:34.197Z,14.0
2017-09-16T08:15:35.934Z,13.9
2017-09-16T08:16:37.559Z,14.0
2017-09-16T08:17:39.178Z,14.3
2017-09-16T08:18:40.785Z,14.4
2017-09-16T08:19:42.333Z,14.6
2017-09-16T08:20:44.054Z,14.8
2017-09-16T08:21:45.654Z,14.8
2017-09-16T08:22:47.284Z,14.9
2017-09-16T08:23:48.873Z,14.9
2017-09-16T08:24:50.603Z,14.9
2017-09-16T08:25:52.180Z,14.7
2017-09-16T08:26:53.804Z,14.4
2017-09-16T08:27:55.340Z,14.5
2017-09-16T08:28:56.942Z,14.6
2017-09-16T08:29:58.530Z,14.6
2017-09-16T08:31:00.096Z,14.4
2017-09-16T08:32:01.758Z,14.3
2017-09-16T08:33:03.290Z,14.3
2017-09-16T08:34:04.979Z,14.5
2017-09-16T08:35:06.594Z,14.5
2017-09-16T08:36:08.184Z,14.6
2017-09-16T08:37:09.837Z,14.5
2017-09-16T08:38:11.389Z,14.4
2017-09-16T08:39:12.948Z,14.5
2017-09-16T08:40:14.485Z,14.6
2017-09-16T08:41:16.080Z,14.7
2017-09-16T08:42:17.668Z,14.8
2017-09-16T08:43:19.263Z,14.8
2017-09-16T08:44:20.842Z,14.9
2017-09-16T08:45:22.417Z,15.2
2017-09-16T08:46:23.994Z,15.5
2017-09-16T08:47:25.520Z,15.6
2017-09-16T08:48:27.171Z,16.0
2017-09-16T08:49:28.772Z,16.2
2017-09-16T08:50:30.434Z,16.3
2017-09-16T08:51:32.040Z,16.4
2017-09-16T08:52:33.805Z,16.7
2017-09-16T08:53:35.396Z,16.9
2017-09-16T08:54:37.049Z,17.0
2017-09-16T08:55:38.709Z,17.1
2017-09-16T08:56:40.299Z,17.3
2017-09-16T08:57:41.837Z,17.5
2017-09-16T08:58:43.414Z,17.6
2017-09-16T08:59:45.005Z,17.9
2017-09-16T09:00:46.586Z,17.6
2017-09-16T09:01:48.137Z,17.6
2017-09-16T09:02:49.726Z,17.6
2017-09-16T09:03:51.326Z,17.5
2017-09-16T09:04:52.884Z,17.8
2017-09-16T09:05:54.450Z,17.9
2017-09-16T09:06:55.975Z,18.1
2017-09-16T09:07:57.517Z,18.2
2017-09-16T09:08:59.158Z,18.5
2017-09-16T09:10:00.735Z,18.9
2017-09-16T09:11:02.365Z,19.0
2017-09-16T09:12:03.912Z,19.1
2017-09-16T09:13:05.521Z,19.5
2017-09-16T09:14:07.098Z,19.5
2017-09-16T09:15:08.768Z,19.9
2017-09-16T09:16:10.574Z,20.3
2017-09-16T09:17:12.290Z,20.1
2017-09-16T09:18:14.057Z,19.5
2017-09-16T09:19:15.774Z,19.6
2017-09-16T09:20:17.434Z,19.8
2017-09-16T09:21:19.009Z,19.7
2017-09-16T09:22:20.601Z,19.9
2017-09-16T09:23:22.211Z,19.5
2017-09-16T09:24:24.016Z,19.6
2017-09-16T09:25:25.724Z,19.9
2017-09-16T09:26:27.574Z,20.1
2017-09-16T09:27:56.520Z,20.5
2017-09-16T09:28:57.796Z,20.9
2017-09-16T09:30:00.133Z,21.0
2017-09-16T09:31:02.364Z,21.1
2017-09-16T09:32:04.059Z,21.4
2017-09-16T09:33:06.223Z,21.6
2017-09-16T09:34:07.844Z,21.9
2017-09-16T09:35:09.605Z,21.6
2017-09-16T09:36:11.473Z,21.3
2017-09-16T09:37:13.172Z,21.4
2017-09-16T09:38:14.851Z,21.7
2017-09-16T09:39:16.482Z,21.8
2017-09-16T09:40:18.398Z,21.9
2017-09-16T09:41:20.587Z,21.6
2017-09-16T09:42:22.506Z,21.4
2017-09-16T09:43:25.280Z,21.5
2017-09-16T09:44:26.983Z,21.8
2017-09-16T09:45:28.769Z,21.3
2017-09-16T09:46:30.409Z,21.5
2017-09-16T09:47:32.771Z,21.7
2017-09-16T09:48:34.734Z,22.0
2017-09-16T09:49:37.703Z,22.0
2017-09-16T09:50:39.381Z,22.2
2017-09-16T09:51:40.938Z,22.2
2017-09-16T09:52:42.604Z,22.3
2017-09-16T09:53:44.299Z,22.1
2017-09-16T09:54:45.985Z,22.2
2017-09-16T09:55:47.796Z,22.5
2017-09-16T09:56:49.466Z,22.5
2017-09-16T09:57:51.153Z,22.8
2017-09-16T09:58:52.726Z,22.7
2017-09-16T09:59:54.342Z,22.9
2017-09-16T10:00:55.983Z,22.8
2017-09-16T10:01:57.820Z,22.8
2017-09-16T10:02:59.514Z,22.6
2017-09-16T10:04:01.097Z,22.4
2017-09-16T10:05:02.723Z,22.3
2017-09-16T10:06:04.257Z,22.5
2017-09-16T10:07:05.845Z,21.6
2017-09-16T10:08:07.487Z,21.1
2017-09-16T10:09:09.089Z,20.9
2017-09-16T10:10:10.874Z,20.7
2017-09-16T10:11:12.446Z,20.5
2017-09-16T10:12:13.997Z,20.3
2017-09-16T10:13:16.698Z,20.2
2017-09-16T10:14:18.244Z,20.7
2017-09-16T10:15:19.770Z,20.7
2017-09-16T10:16:22.018Z,20.6
2017-09-16T10:17:23.567Z,20.1
2017-09-16T10:18:25.118Z,19.6
2017-09-16T10:19:33.367Z,19.1
2017-09-16T10:20:38.860Z,19.1
2017-09-16T10:21:40.553Z,19.0
2017-09-16T10:22:42.132Z,19.0
2017-09-16T10:23:43.715Z,19.0
2017-09-16T10:24:45.290Z,19.0
2017-09-16T10:25:46.897Z,18.7
2017-09-16T10:26:48.692Z,18.5
2017-09-16T10:27:50.501Z,18.7
2017-09-16T10:28:52.044Z,18.9
2017-09-16T10:29:53.648Z,18.8
2017-09-16T10:30:55.200Z,18.7
2017-09-16T10:31:56.760Z,18.3
2017-09-16T10:32:58.361Z,18.2
2017-09-16T10:33:59.950Z,18.0
2017-09-16T10:35:01.472Z,18.3
2017-09-16T10:36:03.633Z,18.5
2017-09-16T10:37:06.931Z,19.0
2017-09-16T10:38:08.080Z,19.1
2017-09-16T10:39:55.626Z,19.6
2017-09-16T10:40:58.370Z,19.8
2017-09-16T10:42:01.559Z,21.8
2017-09-16T10:43:03.820Z,22.5
2017-09-16T10:45:59.076Z,21.8
2017-09-16T10:47:01.584Z,22.3
2017-09-16T10:48:03.123Z,22.5
2017-09-16T10:49:04.826Z,25.5
2017-09-16T10:50:06.573Z,27.9
2017-09-16T10:51:09.437Z,26.4
2017-09-16T10:52:11.059Z,27.0
2017-09-16T10:53:13.257Z,27.6
2017-09-16T10:54:15.317Z,26.9
2017-09-16T10:55:17.265Z,23.6
2017-09-16T10:56:20.430Z,21.2
2017-09-16T10:57:21.960Z,20.5
2017-09-16T10:58:23.468Z,20.4
2017-09-16T10:59:25.070Z,23.2
2017-09-16T11:00:28.293Z,24.5
2017-09-16T11:01:29.800Z,26.2
2017-09-16T11:02:31.923Z,28.3
2017-09-16T11:03:33.460Z,29.8
2017-09-16T11:04:34.956Z,30.4
2017-09-16T11:05:36.447Z,30.5
2017-09-16T11:06:38.036Z,30.7
2017-09-16T11:07:39.633Z,31.2
2017-09-16T11:08:41.146Z,32.1
2017-09-16T11:09:42.687Z,33.0
2017-09-16T11:10:44.171Z,33.4
2017-09-16T11:11:46.078Z,33.7
2017-09-16T11:12:47.606Z,33.5
2017-09-16T11:13:49.153Z,34.0
2017-09-16T11:14:50.686Z,34.4
2017-09-16T11:15:52.261Z,34.2
2017-09-16T11:16:53.859Z,34.9
2017-09-16T11:17:55.655Z,31.4
2017-09-16T11:18:57.337Z,29.1
2017-09-16T11:19:58.884Z,27.5
2017-09-16T11:21:00.463Z,25.7
2017-09-16T11:22:02.014Z,25.1
2017-09-16T11:23:03.542Z,25.1
2017-09-16T11:24:05.979Z,24.1
2017-09-16T11:25:07.703Z,23.6
2017-09-16T11:26:09.402Z,23.0
2017-09-16T11:27:11.122Z,22.3
2017-09-16T11:28:12.878Z,21.9
2017-09-16T11:29:14.480Z,21.5
2017-09-16T11:30:16.190Z,21.1
2017-09-16T11:31:17.892Z,21.0
2017-09-16T11:32:19.533Z,20.6
2017-09-16T11:33:21.282Z,20.3
2017-09-16T11:34:22.895Z,20.1
2017-09-16T11:35:24.487Z,19.7
2017-09-16T11:36:26.132Z,19.1
2017-09-16T11:37:27.771Z,18.7
2017-09-16T11:38:29.353Z,18.3
2017-09-16T11:40:10.288Z,17.8
